Time;durP1;ratioP1;P1;durP2;ratioP2;P2;SDS_P1;SDS_P2;PMS_P1;PMS_P2;Temp;Humidity;BMP_temperature;BMP_pressure;BME280_temperature;BME280_humidity;BME280_pressure;Samples;Min_cycle;Max_cycle;Signal;HPM_P1;HPM_P2
2023/01/19 00:00:50;;;;;;;20.17;14.53;;;1.90;99.90;;;;;;5043026;28;20484;-62
2023/01/19 00:03:18;;;;;;;22.33;14.97;;;2.00;99.90;;;;;;5045600;28;20544;-62
2023/01/19 00:05:46;;;;;;;20.40;14.93;;;1.90;99.90;;;;;;5043518;28;20524;-62
2023/01/19 00:08:15;;;;;;;18.53;14.77;;;2.00;99.90;;;;;;5052262;28;20536;-62
2023/01/19 00:10:44;;;;;;;19.90;15.13;;;2.00;99.90;;;;;;5051754;28;20494;-62
2023/01/19 00:13:13;;;;;;;21.53;14.53;;;2.00;99.90;;;;;;5052164;28;20471;-62
2023/01/19 00:15:42;;;;;;;21.00;15.17;;;2.00;99.90;;;;;;5033866;28;20479;-62
2023/01/19 00:18:11;;;;;;;21.37;14.77;;;2.00;99.90;;;;;;5032179;28;20461;-62
2023/01/19 00:20:39;;;;;;;20.07;14.90;;;2.10;99.90;;;;;;5035281;28;20469;-62
2023/01/19 00:23:08;;;;;;;18.83;14.97;;;2.00;99.90;;;;;;5035364;28;20467;-62
2023/01/19 00:25:42;;;;;;;18.97;14.30;;;2.00;99.90;;;;;;5035044;28;20472;-62
2023/01/19 00:28:11;;;;;;;18.20;13.73;;;2.10;99.90;;;;;;5035042;28;20463;-62
2023/01/19 00:30:40;;;;;;;19.40;14.50;;;2.10;99.90;;;;;;5043084;28;20481;-62
2023/01/19 00:33:10;;;;;;;19.93;14.60;;;2.10;99.90;;;;;;5044631;28;20492;-62
2023/01/19 00:35:38;;;;;;;23.93;15.20;;;2.10;99.90;;;;;;5046861;28;20470;-62
2023/01/19 00:38:06;;;;;;;21.10;14.30;;;2.10;99.90;;;;;;5055380;28;20804;-62
2023/01/19 00:40:34;;;;;;;18.27;14.03;;;2.10;99.90;;;;;;5055156;28;20827;-62
2023/01/19 00:43:02;;;;;;;20.73;14.60;;;2.00;99.90;;;;;;5055000;28;20459;-62
2023/01/19 00:45:31;;;;;;;17.87;13.80;;;2.10;99.90;;;;;;5038131;28;20460;-62
2023/01/19 00:47:59;;;;;;;19.97;15.17;;;2.10;99.90;;;;;;5035230;28;20817;-62
2023/01/19 00:50:30;;;;;;;19.87;15.40;;;2.10;99.90;;;;;;5034714;28;20464;-62
2023/01/19 00:52:59;;;;;;;18.50;14.17;;;2.10;99.90;;;;;;5034785;28;20488;-62
2023/01/19 00:55:28;;;;;;;19.40;14.47;;;2.10;99.90;;;;;;5033732;28;20559;-62
2023/01/19 00:57:57;;;;;;;20.43;14.27;;;2.10;99.90;;;;;;5034395;28;20980;-62
2023/01/19 01:00:26;;;;;;;19.27;15.33;;;2.10;99.90;;;;;;5039954;28;20469;-62
2023/01/19 01:02:54;;;;;;;20.97;15.33;;;2.10;99.90;;;;;;5050650;28;20556;-62
2023/01/19 01:05:22;;;;;;;18.50;14.87;;;2.10;99.90;;;;;;5046743;28;21040;-62
2023/01/19 01:07:51;;;;;;;17.57;14.73;;;2.10;99.90;;;;;;5055038;28;21319;-62
2023/01/19 01:10:22;;;;;;;21.63;15.87;;;2.20;99.90;;;;;;5041257;28;20479;-62
2023/01/19 01:12:50;;;;;;;20.73;15.27;;;2.20;99.90;;;;;;5034568;28;20485;-62
2023/01/19 01:15:26;;;;;;;20.17;15.83;;;2.20;99.90;;;;;;5034253;28;20475;-62
2023/01/19 01:17:54;;;;;;;21.23;15.60;;;2.10;99.90;;;;;;5034276;28;20475;-62
2023/01/19 01:20:25;;;;;;;20.50;14.80;;;2.20;99.90;;;;;;5034415;28;20457;-62
2023/01/19 01:22:56;;;;;;;20.27;14.10;;;2.20;99.90;;;;;;5045835;28;20469;-62
2023/01/19 01:25:25;;;;;;;21.70;14.87;;;2.20;99.90;;;;;;5036835;28;20473;-62
2023/01/19 01:27:54;;;;;;;21.97;15.67;;;2.20;99.90;;;;;;5035706;28;20474;-62
2023/01/19 01:30:23;;;;;;;23.77;16.07;;;2.20;99.90;;;;;;5045450;28;20474;-62
2023/01/19 01:32:51;;;;;;;23.97;15.50;;;2.20;99.90;;;;;;5054125;28;20499;-62
2023/01/19 01:35:19;;;;;;;20.67;15.53;;;2.20;99.90;;;;;;5045886;28;20882;-62
2023/01/19 01:37:47;;;;;;;19.73;15.07;;;2.20;99.90;;;;;;5054114;28;20495;-62
2023/01/19 01:40:18;;;;;;;19.97;15.57;;;2.20;99.90;;;;;;5054206;28;20834;-62
2023/01/19 01:42:47;;;;;;;19.73;14.93;;;2.30;99.90;;;;;;5053969;28;20472;-62
2023/01/19 01:45:30;;;;;;;23.70;15.80;;;2.30;99.90;;;;;;5039636;28;20521;-62
2023/01/19 01:48:02;;;;;;;18.57;15.47;;;2.20;99.90;;;;;;5033792;28;20500;-62
2023/01/19 01:50:34;;;;;;;20.70;14.90;;;2.30;99.90;;;;;;5033908;28;20476;-62
2023/01/19 01:53:05;;;;;;;22.13;16.43;;;2.30;99.90;;;;;;5033734;28;20488;-62
2023/01/19 01:55:41;;;;;;;21.23;15.80;;;2.30;99.90;;;;;;5033349;28;20488;-62
2023/01/19 01:58:11;;;;;;;19.20;15.03;;;2.30;99.90;;;;;;5037008;28;20480;-62
2023/01/19 02:03:28;;;;;;;20.77;16.13;;;2.40;99.90;;;;;;5053431;28;20468;-62
2023/01/19 02:05:59;;;;;;;21.13;15.97;;;2.40;99.90;;;;;;5045058;28;20500;-62
2023/01/19 02:14:06;;;;;;;22.67;16.53;;;2.30;99.90;;;;;;5048645;28;20567;-62
2023/01/19 02:16:36;;;;;;;18.83;16.47;;;2.40;99.90;;;;;;5033219;28;20463;-61
2023/01/19 02:19:05;;;;;;;19.40;16.63;;;2.40;99.90;;;;;;5033341;28;20843;-62
2023/01/19 02:21:41;;;;;;;21.23;17.87;;;2.30;99.90;;;;;;5032809;28;20551;-62
2023/01/19 02:24:11;;;;;;;20.97;16.53;;;2.30;99.90;;;;;;5033152;28;20457;-62
2023/01/19 02:26:41;;;;;;;22.10;16.93;;;2.30;99.90;;;;;;5033243;28;20467;-62
2023/01/19 02:29:12;;;;;;;20.80;15.73;;;2.40;99.90;;;;;;5046112;28;20896;-62
2023/01/19 02:31:40;;;;;;;23.40;17.80;;;2.40;99.90;;;;;;5048466;28;20476;-62
2023/01/19 02:34:11;;;;;;;19.97;17.17;;;2.40;99.90;;;;;;5049176;28;20494;-62
2023/01/19 02:36:43;;;;;;;22.37;17.43;;;2.40;99.90;;;;;;5048895;28;20462;-62
2023/01/19 02:39:15;;;;;;;20.63;16.57;;;2.40;99.90;;;;;;5052823;28;20473;-62
2023/01/19 02:41:48;;;;;;;23.33;18.27;;;2.40;99.90;;;;;;5052193;28;20466;-61
2023/01/19 02:44:19;;;;;;;21.23;16.63;;;2.40;99.90;;;;;;5046441;28;20955;-61
2023/01/19 02:46:48;;;;;;;25.27;18.20;;;2.40;99.90;;;;;;5032493;28;20471;-62
2023/01/19 02:49:16;;;;;;;22.90;18.00;;;2.40;99.90;;;;;;5032741;28;20463;-62
2023/01/19 02:51:44;;;;;;;22.87;17.87;;;2.40;99.90;;;;;;5032454;28;20464;-62
2023/01/19 02:54:41;;;;;;;22.07;17.97;;;2.40;99.90;;;;;;5032489;28;20497;-62
2023/01/19 02:57:33;;;;;;;22.10;17.43;;;2.40;99.90;;;;;;5032622;28;20471;-62
2023/01/19 03:00:21;;;;;;;23.20;17.40;;;2.40;99.90;;;;;;5042039;28;20473;-62
2023/01/19 03:03:03;;;;;;;21.80;17.70;;;2.40;99.90;;;;;;5012291;28;20482;-62
2023/01/19 03:05:49;;;;;;;22.43;16.90;;;2.40;99.90;;;;;;5010435;28;20462;-62
2023/01/19 03:08:28;;;;;;;24.10;18.27;;;2.40;99.90;;;;;;5010811;28;20977;-62
2023/01/19 03:11:02;;;;;;;28.00;18.33;;;2.40;99.90;;;;;;5010684;28;20477;-62
2023/01/19 03:13:40;;;;;;;21.63;17.10;;;2.40;99.90;;;;;;5010448;28;20580;-62
2023/01/19 03:16:15;;;;;;;20.50;17.13;;;2.50;99.90;;;;;;5010435;28;20464;-62
2023/01/19 03:18:49;;;;;;;22.37;17.63;;;2.50;99.90;;;;;;5010426;28;20560;-62
2023/01/19 03:21:19;;;;;;;19.47;15.90;;;2.50;99.90;;;;;;5012954;28;20470;-62
2023/01/19 03:23:50;;;;;;;22.57;17.73;;;2.50;99.90;;;;;;5010460;28;20457;-62
2023/01/19 03:26:24;;;;;;;20.50;16.73;;;2.50;99.90;;;;;;5010599;28;20465;-62
2023/01/19 03:28:55;;;;;;;23.13;17.93;;;2.50;99.90;;;;;;5023041;28;20467;-61
2023/01/19 03:31:26;;;;;;;20.60;17.50;;;2.50;99.90;;;;;;5023560;28;20491;-62
2023/01/19 03:33:57;;;;;;;22.47;17.67;;;2.50;99.90;;;;;;5039867;28;20488;-61
2023/01/19 03:36:30;;;;;;;23.20;16.73;;;2.50;99.90;;;;;;5046267;28;20476;-61
2023/01/19 03:39:00;;;;;;;20.70;18.17;;;2.50;99.90;;;;;;5052253;28;20467;-62
2023/01/19 03:41:33;;;;;;;20.53;16.93;;;2.50;99.90;;;;;;5052256;28;20471;-61
2023/01/19 03:44:04;;;;;;;21.67;18.13;;;2.60;99.90;;;;;;5048227;28;20470;-62
2023/01/19 03:46:33;;;;;;;21.70;18.47;;;2.50;99.90;;;;;;5031951;28;20462;-62
2023/01/19 03:49:02;;;;;;;21.27;16.93;;;2.60;99.90;;;;;;5032187;28;20475;-62
2023/01/19 03:51:30;;;;;;;21.97;18.10;;;2.60;99.90;;;;;;5031891;28;20469;-62
2023/01/19 03:54:00;;;;;;;23.20;17.40;;;2.60;99.90;;;;;;5033080;28;20496;-62
2023/01/19 03:56:29;;;;;;;20.73;17.17;;;2.60;99.90;;;;;;5036075;28;20539;-62
2023/01/19 03:58:58;;;;;;;21.87;17.53;;;2.60;99.90;;;;;;5044162;28;20794;-62
2023/01/19 04:01:26;;;;;;;24.33;18.50;;;2.60;99.90;;;;;;5049331;28;20836;-61
2023/01/19 04:03:54;;;;;;;23.07;18.23;;;2.60;99.90;;;;;;5054040;28;20563;-61
2023/01/19 04:06:22;;;;;;;21.67;18.33;;;2.60;99.90;;;;;;5049279;28;20461;-62
2023/01/19 04:08:51;;;;;;;21.50;17.53;;;2.60;99.90;;;;;;5055825;28;20824;-62
2023/01/19 04:11:19;;;;;;;24.37;18.20;;;2.70;99.90;;;;;;5055938;28;20498;-61
2023/01/19 04:13:50;;;;;;;24.17;17.57;;;2.60;99.90;;;;;;5046636;28;20495;-62
2023/01/19 04:16:19;;;;;;;23.93;19.03;;;2.60;99.90;;;;;;5035447;28;20462;-62
2023/01/19 04:18:49;;;;;;;24.97;18.23;;;2.70;99.90;;;;;;5035431;28;20563;-62
2023/01/19 04:21:19;;;;;;;22.40;18.50;;;2.70;99.90;;;;;;5035647;28;20994;-62
2023/01/19 04:23:48;;;;;;;20.17;17.63;;;2.70;99.90;;;;;;5035610;28;20475;-61
2023/01/19 04:26:17;;;;;;;22.30;18.20;;;2.70;99.90;;;;;;5035739;28;20880;-61
2023/01/19 04:28:45;;;;;;;22.73;18.43;;;2.70;99.90;;;;;;5043557;28;21060;-62
2023/01/19 04:31:14;;;;;;;20.97;18.03;;;2.80;99.90;;;;;;5047231;28;20475;-61
2023/01/19 04:33:42;;;;;;;23.43;17.17;;;2.80;99.90;;;;;;5043714;28;20854;-61
2023/01/19 04:36:10;;;;;;;22.23;18.17;;;2.80;99.90;;;;;;5047261;28;20468;-62
2023/01/19 04:38:38;;;;;;;21.30;17.63;;;2.70;99.90;;;;;;5055160;28;20459;-61
2023/01/19 04:41:06;;;;;;;22.73;18.10;;;2.70;99.90;;;;;;5055112;28;20449;-61
2023/01/19 04:43:34;;;;;;;20.57;17.93;;;2.70;99.90;;;;;;5049795;28;20469;-61
2023/01/19 04:46:02;;;;;;;22.27;17.50;;;2.70;99.90;;;;;;5035057;28;20465;-62
2023/01/19 04:48:32;;;;;;;21.93;18.67;;;2.70;99.90;;;;;;5034830;28;20475;-62
2023/01/19 04:51:01;;;;;;;21.30;18.27;;;2.80;99.90;;;;;;5034743;28;20511;-62
2023/01/19 04:53:29;;;;;;;22.57;18.33;;;2.70;99.90;;;;;;5034783;28;20967;-61
2023/01/19 04:55:58;;;;;;;20.77;18.13;;;2.80;99.90;;;;;;5034813;28;20457;-61
2023/01/19 04:58:26;;;;;;;20.73;18.40;;;2.70;99.90;;;;;;5040686;28;20464;-61
2023/01/19 05:00:55;;;;;;;24.47;19.57;;;2.70;99.90;;;;;;5046130;28;20838;-61
2023/01/19 05:03:23;;;;;;;22.67;17.93;;;2.80;99.90;;;;;;5054573;28;20472;-61
2023/01/19 05:05:54;;;;;;;22.17;18.97;;;2.80;99.90;;;;;;5045650;28;20524;-61
2023/01/19 05:08:23;;;;;;;24.67;19.83;;;2.80;99.90;;;;;;5054555;28;20476;-61
2023/01/19 05:10:51;;;;;;;22.67;19.63;;;2.80;99.90;;;;;;5036377;28;20469;-61
2023/01/19 05:13:19;;;;;;;23.10;18.63;;;2.80;99.90;;;;;;5034778;28;20469;-61
2023/01/19 05:15:47;;;;;;;24.40;19.40;;;2.80;99.90;;;;;;5034370;28;20537;-61
2023/01/19 05:18:15;;;;;;;22.07;19.03;;;2.80;99.90;;;;;;5034786;28;20523;-62
2023/01/19 05:20:43;;;;;;;21.07;18.37;;;2.80;99.90;;;;;;5033966;28;20861;-61
2023/01/19 05:23:13;;;;;;;24.83;19.07;;;2.80;99.90;;;;;;5034609;28;20459;-61
2023/01/19 05:25:43;;;;;;;23.70;19.53;;;2.80;99.90;;;;;;5033886;28;20468;-61
2023/01/19 05:28:11;;;;;;;22.83;19.10;;;2.80;99.90;;;;;;5046410;28;20797;-61
2023/01/19 05:30:39;;;;;;;24.23;19.13;;;2.80;99.90;;;;;;5045190;28;20488;-61
2023/01/19 05:33:07;;;;;;;23.50;18.87;;;2.80;99.90;;;;;;5054049;28;20870;-61
2023/01/19 05:35:35;;;;;;;24.20;18.97;;;2.80;99.90;;;;;;5045629;28;20552;-61
2023/01/19 05:38:04;;;;;;;21.50;17.50;;;2.80;99.90;;;;;;5054260;28;20464;-60
2023/01/19 05:40:33;;;;;;;25.40;19.13;;;2.90;99.90;;;;;;5053726;28;20478;-61
2023/01/19 05:43:03;;;;;;;22.63;19.43;;;2.90;99.90;;;;;;5040156;28;20992;-61
2023/01/19 05:45:32;;;;;;;21.77;18.53;;;2.80;99.90;;;;;;5033652;28;20472;-61
2023/01/19 05:48:01;;;;;;;22.90;19.30;;;2.80;99.90;;;;;;5033054;28;20865;-61
2023/01/19 05:50:29;;;;;;;22.37;19.10;;;2.80;99.90;;;;;;5033918;28;20907;-61
2023/01/19 05:52:57;;;;;;;22.30;19.07;;;2.80;99.90;;;;;;5033801;28;20466;-61
2023/01/19 05:55:28;;;;;;;24.17;20.03;;;2.80;99.90;;;;;;5033332;28;20499;-61
2023/01/19 05:57:57;;;;;;;22.30;18.73;;;2.80;99.90;;;;;;5035513;28;20471;-61
2023/01/19 06:00:26;;;;;;;22.23;19.00;;;2.80;99.90;;;;;;5044896;28;20993;-61
2023/01/19 06:02:54;;;;;;;22.77;18.60;;;2.80;99.90;;;;;;5041261;28;21018;-61
2023/01/19 06:05:22;;;;;;;23.33;19.50;;;2.80;99.90;;;;;;5045337;28;20471;-61
2023/01/19 06:07:51;;;;;;;20.57;17.27;;;2.80;99.90;;;;;;5053386;28;20452;-61
2023/01/19 06:10:19;;;;;;;21.40;18.53;;;2.90;99.90;;;;;;5053360;28;20471;-61
2023/01/19 06:12:47;;;;;;;22.10;18.77;;;2.90;99.90;;;;;;5042113;28;20481;-61
2023/01/19 06:15:16;;;;;;;24.07;18.37;;;2.90;99.90;;;;;;5033166;28;20987;-61
2023/01/19 06:17:44;;;;;;;26.23;18.80;;;2.90;99.90;;;;;;5032464;28;20479;-61
2023/01/19 06:20:13;;;;;;;21.70;19.37;;;2.90;99.90;;;;;;5033065;28;20918;-61
2023/01/19 06:22:41;;;;;;;23.13;18.47;;;2.80;99.90;;;;;;5032665;28;20456;-61
2023/01/19 06:25:10;;;;;;;22.33;19.10;;;2.80;99.90;;;;;;5032050;28;20472;-61
2023/01/19 06:27:39;;;;;;;22.23;19.00;;;2.80;99.90;;;;;;5032844;28;20483;-61
2023/01/19 06:30:09;;;;;;;23.50;20.50;;;2.80;99.90;;;;;;5033056;28;20562;-61
2023/01/19 06:32:38;;;;;;;22.57;19.70;;;2.80;99.90;;;;;;5033332;28;20481;-61
2023/01/19 06:35:07;;;;;;;23.37;19.97;;;2.80;99.90;;;;;;5035959;28;20484;-61
2023/01/19 06:37:35;;;;;;;26.40;20.70;;;2.80;99.90;;;;;;5032575;28;20566;-61
2023/01/19 06:40:04;;;;;;;22.73;19.50;;;2.80;99.90;;;;;;5035009;28;20463;-61
2023/01/19 06:42:32;;;;;;;23.97;20.13;;;2.80;99.90;;;;;;5032443;28;20995;-61
2023/01/19 06:45:00;;;;;;;25.17;20.43;;;2.80;99.90;;;;;;5030999;28;20466;-61
2023/01/19 06:47:28;;;;;;;26.33;21.40;;;2.80;99.90;;;;;;5034854;28;20469;-61
2023/01/19 06:49:57;;;;;;;28.10;22.17;;;2.80;99.90;;;;;;5034872;28;20472;-61
2023/01/19 06:52:27;;;;;;;27.10;21.77;;;2.80;99.90;;;;;;5032318;28;20515;-61
2023/01/19 06:54:55;;;;;;;25.70;21.07;;;2.80;99.90;;;;;;5031682;28;20558;-61
2023/01/19 06:57:24;;;;;;;27.60;22.20;;;2.80;99.90;;;;;;5031751;28;20501;-61
2023/01/19 06:59:52;;;;;;;24.40;20.43;;;2.90;99.90;;;;;;5028772;28;20558;-62
2023/01/19 07:02:22;;;;;;;25.23;21.63;;;2.90;99.90;;;;;;5022370;28;20489;-62
2023/01/19 07:04:55;;;;;;;28.70;22.83;;;2.90;99.90;;;;;;5021616;28;20473;-61
2023/01/19 07:07:24;;;;;;;28.77;22.37;;;2.90;99.90;;;;;;5021680;28;20829;-61
2023/01/19 07:09:53;;;;;;;27.03;22.03;;;2.90;99.90;;;;;;5018413;28;20472;-61
2023/01/19 07:12:21;;;;;;;27.23;22.60;;;2.90;99.90;;;;;;5021832;28;20472;-62
2023/01/19 07:14:49;;;;;;;27.73;22.80;;;2.80;99.90;;;;;;5020704;28;20491;-62
2023/01/19 07:17:18;;;;;;;25.17;20.90;;;2.80;99.90;;;;;;5021741;28;20479;-62
2023/01/19 07:19:47;;;;;;;29.47;23.47;;;2.80;99.90;;;;;;5019053;28;21045;-62
2023/01/19 07:22:15;;;;;;;26.97;21.67;;;2.90;99.90;;;;;;5022195;28;20482;-61
2023/01/19 07:24:44;;;;;;;28.53;22.23;;;2.80;99.90;;;;;;5021158;28;20473;-61
2023/01/19 07:27:12;;;;;;;27.40;22.53;;;2.90;99.90;;;;;;5020941;28;20489;-61
2023/01/19 07:29:41;;;;;;;29.63;23.40;;;2.90;99.90;;;;;;5024035;28;20465;-62
2023/01/19 07:32:10;;;;;;;27.33;22.67;;;2.90;99.90;;;;;;5026092;28;20474;-61
2023/01/19 07:34:38;;;;;;;27.73;22.70;;;2.90;99.90;;;;;;5028825;28;20472;-62
2023/01/19 07:37:06;;;;;;;29.37;23.63;;;2.80;99.90;;;;;;5028802;28;21424;-61
2023/01/19 07:39:35;;;;;;;28.20;22.23;;;2.80;99.90;;;;;;5027146;28;20480;-62
2023/01/19 07:42:05;;;;;;;28.97;23.20;;;2.80;99.90;;;;;;5030341;28;20559;-62
2023/01/19 07:44:33;;;;;;;31.17;23.50;;;2.90;99.90;;;;;;5029943;28;20479;-62
2023/01/19 07:47:01;;;;;;;31.47;24.37;;;2.90;99.90;;;;;;5028950;28;20845;-62
2023/01/19 07:49:29;;;;;;;29.63;24.20;;;2.80;99.90;;;;;;5027972;28;20476;-62
2023/01/19 07:51:57;;;;;;;29.10;22.97;;;2.80;99.90;;;;;;5029562;28;20474;-62
2023/01/19 07:54:25;;;;;;;32.17;24.13;;;2.80;99.90;;;;;;5028722;28;20480;-62
2023/01/19 07:56:54;;;;;;;32.13;24.63;;;2.80;99.90;;;;;;5029778;28;20555;-62
2023/01/19 07:59:23;;;;;;;33.00;25.03;;;2.90;99.90;;;;;;5025737;28;20495;-62
2023/01/19 08:01:52;;;;;;;32.77;25.27;;;2.80;99.90;;;;;;5031743;28;20486;-62
2023/01/19 08:04:21;;;;;;;30.17;22.93;;;2.80;99.90;;;;;;5029968;28;20841;-62
2023/01/19 08:06:49;;;;;;;30.43;24.13;;;2.80;99.90;;;;;;5029624;28;21099;-62
2023/01/19 08:09:17;;;;;;;31.73;24.43;;;2.90;99.90;;;;;;5029046;28;20473;-62
2023/01/19 08:11:46;;;;;;;29.47;24.23;;;2.90;99.90;;;;;;5028861;28;20899;-62
2023/01/19 08:14:13;;;;;;;31.37;24.07;;;2.90;99.90;;;;;;5029436;28;20460;-61
2023/01/19 08:16:43;;;;;;;30.53;24.30;;;2.90;99.90;;;;;;5030333;28;20499;-62
2023/01/19 08:19:11;;;;;;;30.63;24.77;;;2.90;99.90;;;;;;5026952;28;20477;-61
2023/01/19 08:21:39;;;;;;;30.00;24.33;;;3.00;99.90;;;;;;5036457;28;20844;-62
2023/01/19 08:24:20;;;;;;;30.93;24.43;;;3.00;99.90;;;;;;5033888;28;20485;-64
2023/01/19 08:26:48;;;;;;;29.33;22.83;;;3.00;99.90;;;;;;5028272;28;21045;-62
2023/01/19 08:29:16;;;;;;;31.37;24.23;;;3.00;99.90;;;;;;5026535;28;20837;-61
2023/01/19 08:31:46;;;;;;;32.67;24.03;;;3.10;99.90;;;;;;5030709;28;20503;-61
2023/01/19 08:34:14;;;;;;;33.40;25.20;;;3.00;99.90;;;;;;5029392;28;20483;-62
2023/01/19 08:36:42;;;;;;;27.67;22.93;;;3.10;99.90;;;;;;5029200;28;20488;-61
2023/01/19 08:39:12;;;;;;;29.50;23.53;;;3.10;99.90;;;;;;5031868;28;20482;-62
2023/01/19 08:41:40;;;;;;;31.10;24.87;;;3.10;99.90;;;;;;5033862;28;20488;-61
2023/01/19 08:44:08;;;;;;;30.33;24.13;;;3.10;99.90;;;;;;5035383;28;20992;-60
2023/01/19 08:46:36;;;;;;;31.57;24.83;;;3.10;99.90;;;;;;5031144;28;20478;-62
2023/01/19 08:49:05;;;;;;;29.33;23.73;;;3.10;99.90;;;;;;5034472;28;20574;-61
2023/01/19 08:51:33;;;;;;;30.87;23.13;;;3.00;99.90;;;;;;5034455;28;20475;-62
2023/01/19 08:54:02;;;;;;;28.47;22.83;;;3.10;99.90;;;;;;5035470;28;20501;-62
2023/01/19 08:56:30;;;;;;;30.07;24.33;;;3.10;99.90;;;;;;5033631;28;20501;-62
2023/01/19 08:58:58;;;;;;;30.83;23.90;;;3.10;99.90;;;;;;5031834;28;20944;-62
2023/01/19 09:01:37;;;;;;;31.63;23.63;;;3.10;99.90;;;;;;5034355;28;20477;-62
2023/01/19 09:04:07;;;;;;;29.07;24.37;;;3.10;99.90;;;;;;5033635;28;20480;-61
2023/01/19 09:06:35;;;;;;;31.70;24.53;;;3.10;99.90;;;;;;5035296;28;20480;-62
2023/01/19 09:09:04;;;;;;;30.47;23.70;;;3.10;99.90;;;;;;5032086;28;20481;-62
2023/01/19 09:11:33;;;;;;;30.53;24.33;;;3.10;99.90;;;;;;5032794;28;20472;-62
2023/01/19 09:14:02;;;;;;;29.53;23.93;;;3.10;99.90;;;;;;5031450;28;20475;-62
2023/01/19 09:16:31;;;;;;;29.43;23.20;;;3.10;99.90;;;;;;5028088;28;20487;-62
2023/01/19 09:18:59;;;;;;;30.63;24.27;;;3.10;99.90;;;;;;5026957;28;20485;-62
2023/01/19 09:21:28;;;;;;;29.27;23.80;;;3.10;99.90;;;;;;5029811;28;20469;-62
2023/01/19 09:23:56;;;;;;;29.60;23.93;;;3.10;99.90;;;;;;5029906;28;20973;-61
2023/01/19 09:26:25;;;;;;;28.63;22.67;;;3.10;99.90;;;;;;5027166;28;20478;-62
2023/01/19 09:28:53;;;;;;;30.50;22.50;;;3.10;99.90;;;;;;5026730;28;20480;-62
2023/01/19 09:31:21;;;;;;;29.43;23.67;;;3.10;99.90;;;;;;5028599;28;20493;-62
2023/01/19 09:33:49;;;;;;;29.37;22.60;;;3.10;99.90;;;;;;5027370;28;20479;-62
2023/01/19 09:36:17;;;;;;;30.83;23.60;;;3.10;99.90;;;;;;5029725;28;20491;-62
2023/01/19 09:38:46;;;;;;;28.27;22.77;;;3.20;99.90;;;;;;5033857;28;20471;-62
2023/01/19 09:41:20;;;;;;;28.30;23.13;;;3.20;99.90;;;;;;5035739;28;20990;-61
2023/01/19 09:43:54;;;;;;;30.47;25.00;;;3.20;99.90;;;;;;5028695;28;20860;-62
2023/01/19 09:46:27;;;;;;;32.63;24.97;;;3.30;99.90;;;;;;5025206;28;20886;-62
2023/01/19 09:48:57;;;;;;;28.13;23.33;;;3.30;99.90;;;;;;5026553;28;20493;-62
2023/01/19 09:51:27;;;;;;;27.73;23.17;;;3.30;99.90;;;;;;5026753;28;21000;-62
2023/01/19 09:54:02;;;;;;;29.47;22.50;;;3.30;99.90;;;;;;5027163;28;20492;-61
2023/01/19 09:56:32;;;;;;;28.43;23.53;;;3.40;99.90;;;;;;5029257;28;20862;-62
2023/01/19 09:59:00;;;;;;;28.50;23.33;;;3.40;99.90;;;;;;5032839;28;20993;-61
2023/01/19 10:01:41;;;;;;;30.70;24.07;;;3.40;99.90;;;;;;5026487;28;20493;-62
2023/01/19 10:04:36;;;;;;;31.73;23.47;;;3.40;99.90;;;;;;5026270;28;20483;-62
2023/01/19 10:07:11;;;;;;;29.20;23.17;;;3.50;99.90;;;;;;5018998;28;20488;-62
2023/01/19 10:10:02;;;;;;;30.60;24.07;;;3.50;99.90;;;;;;5026912;28;21124;-62
2023/01/19 10:12:41;;;;;;;29.10;23.73;;;3.50;99.90;;;;;;5029078;28;20473;-60
2023/01/19 10:15:19;;;;;;;29.20;22.47;;;3.70;99.90;;;;;;5026002;28;20988;-62
2023/01/19 10:17:56;;;;;;;28.57;23.20;;;3.70;99.90;;;;;;5027930;28;20498;-62
2023/01/19 10:20:31;;;;;;;28.83;22.87;;;3.70;99.90;;;;;;5030231;28;20484;-62
2023/01/19 10:23:01;;;;;;;30.40;23.67;;;3.70;99.90;;;;;;5030523;28;20867;-62
2023/01/19 10:25:31;;;;;;;26.17;21.77;;;3.80;99.90;;;;;;5033836;28;20975;-62
2023/01/19 10:28:01;;;;;;;26.43;21.67;;;3.80;99.90;;;;;;5031231;28;20524;-62
2023/01/19 10:30:29;;;;;;;30.30;23.53;;;3.80;99.90;;;;;;5023642;28;20994;-62
2023/01/19 10:32:57;;;;;;;26.83;21.50;;;3.70;99.90;;;;;;5026115;28;21085;-62
2023/01/19 10:35:26;;;;;;;26.77;22.13;;;3.80;99.90;;;;;;5026770;28;20825;-62
2023/01/19 10:37:58;;;;;;;30.47;21.93;;;3.80;99.90;;;;;;5025870;28;20503;-62
2023/01/19 10:40:33;;;;;;;25.40;21.27;;;3.80;99.90;;;;;;5025141;28;20486;-62
2023/01/19 10:43:01;;;;;;;29.60;21.77;;;3.80;99.90;;;;;;5026372;28;20482;-62
2023/01/19 10:45:31;;;;;;;24.70;20.30;;;3.80;99.90;;;;;;5033174;28;20991;-62
2023/01/19 10:48:05;;;;;;;23.80;19.57;;;3.70;99.90;;;;;;5026123;28;20467;-62
2023/01/19 10:50:38;;;;;;;25.87;21.00;;;3.70;99.90;;;;;;5025289;28;20484;-62
2023/01/19 10:53:17;;;;;;;27.83;21.83;;;3.60;99.90;;;;;;5026085;28;20470;-61
2023/01/19 10:55:46;;;;;;;24.33;19.97;;;3.60;99.90;;;;;;5024009;28;20494;-62
2023/01/19 10:58:29;;;;;;;30.97;23.87;;;3.70;99.90;;;;;;5029113;28;20543;-62
2023/01/19 11:01:13;;;;;;;31.20;23.70;;;3.60;99.90;;;;;;5025908;28;20939;-62
2023/01/19 11:03:41;;;;;;;28.40;22.63;;;3.60;99.90;;;;;;5029923;28;20540;-62
2023/01/19 11:06:24;;;;;;;27.37;22.30;;;3.60;99.90;;;;;;5025591;28;20482;-62
2023/01/19 11:09:08;;;;;;;30.00;21.40;;;3.60;99.90;;;;;;5029765;28;20473;-61
2023/01/19 11:11:45;;;;;;;25.53;20.90;;;3.60;99.90;;;;;;5030816;28;21024;-62
2023/01/19 11:14:17;;;;;;;30.73;23.30;;;3.60;99.90;;;;;;5031867;28;20472;-61
2023/01/19 11:16:48;;;;;;;28.37;23.70;;;3.70;99.90;;;;;;5031638;28;20471;-62
2023/01/19 11:19:25;;;;;;;31.00;21.90;;;3.70;99.90;;;;;;5030149;28;20486;-62
2023/01/19 11:22:07;;;;;;;26.23;21.40;;;3.70;99.90;;;;;;5024991;28;20484;-61
2023/01/19 11:24:37;;;;;;;29.37;22.03;;;3.80;99.90;;;;;;5027799;28;20477;-61
2023/01/19 11:27:07;;;;;;;31.17;21.87;;;3.80;99.90;;;;;;5023404;28;20455;-62
2023/01/19 11:29:37;;;;;;;29.83;21.40;;;3.80;99.90;;;;;;5024335;28;20475;-61
2023/01/19 11:32:19;;;;;;;27.13;20.80;;;3.80;99.90;;;;;;5027313;28;20489;-62
2023/01/19 11:34:48;;;;;;;27.53;19.77;;;3.80;99.90;;;;;;5024128;28;21069;-62
2023/01/19 11:37:33;;;;;;;24.53;20.10;;;3.90;99.90;;;;;;5030704;28;21168;-62
2023/01/19 11:40:05;;;;;;;25.87;21.30;;;3.90;99.90;;;;;;5029055;28;20474;-62
2023/01/19 11:42:36;;;;;;;27.40;19.80;;;3.90;99.90;;;;;;5032703;28;20995;-62
2023/01/19 11:45:12;;;;;;;25.53;20.13;;;3.90;99.90;;;;;;5032591;28;20968;-61
2023/01/19 11:47:44;;;;;;;26.00;20.03;;;3.90;99.90;;;;;;5030481;28;20472;-62
2023/01/19 11:50:21;;;;;;;27.13;21.03;;;3.90;99.90;;;;;;5027840;28;20485;-62
2023/01/19 11:52:55;;;;;;;30.20;22.40;;;3.80;99.90;;;;;;5031308;28;20476;-62
2023/01/19 11:55:31;;;;;;;29.77;21.27;;;3.80;99.90;;;;;;5031347;28;20490;-62
2023/01/19 11:58:02;;;;;;;31.70;21.57;;;3.80;99.90;;;;;;5033222;28;20500;-62
2023/01/19 12:00:35;;;;;;;28.60;21.70;;;3.80;99.90;;;;;;5023263;28;20546;-60
2023/01/19 12:03:09;;;;;;;30.37;22.13;;;3.80;99.90;;;;;;5026103;28;20469;-62
2023/01/19 12:05:43;;;;;;;31.67;21.87;;;3.80;99.90;;;;;;5023560;28;20536;-61
2023/01/19 12:08:15;;;;;;;32.33;24.00;;;3.80;99.90;;;;;;5026306;28;20465;-61
2023/01/19 12:10:47;;;;;;;29.07;20.57;;;3.80;99.90;;;;;;5023464;28;21064;-62
2023/01/19 12:13:21;;;;;;;30.03;22.00;;;3.80;99.90;;;;;;5027839;28;20471;-61
2023/01/19 12:15:54;;;;;;;30.93;23.10;;;3.80;99.90;;;;;;5026815;28;20475;-62
2023/01/19 12:18:25;;;;;;;30.53;21.77;;;3.80;99.90;;;;;;5028354;28;20497;-61
2023/01/19 12:20:54;;;;;;;31.93;21.90;;;3.80;99.90;;;;;;5028172;28;20474;-61
2023/01/19 12:23:38;;;;;;;29.77;21.03;;;3.80;99.90;;;;;;5028792;28;20484;-62
2023/01/19 12:26:26;;;;;;;30.40;20.97;;;3.90;99.90;;;;;;5027640;28;20525;-62
2023/01/19 12:29:00;;;;;;;29.13;20.97;;;3.90;99.90;;;;;;5029528;28;20473;-62
2023/01/19 12:31:28;;;;;;;27.73;20.73;;;4.00;99.90;;;;;;5030048;28;20496;-62
2023/01/19 12:34:38;;;;;;;28.07;18.80;;;3.90;99.90;;;;;;5028387;28;20492;-62
2023/01/19 12:37:27;;;;;;;25.77;18.00;;;4.00;99.90;;;;;;5028748;28;21061;-62
2023/01/19 12:39:58;;;;;;;26.07;18.60;;;3.90;99.90;;;;;;5032248;28;20521;-62
2023/01/19 12:42:27;;;;;;;21.40;16.97;;;4.00;99.90;;;;;;5031709;28;20516;-62
2023/01/19 12:45:06;;;;;;;23.67;17.33;;;4.10;99.90;;;;;;5032336;28;20472;-62
2023/01/19 12:47:36;;;;;;;23.80;17.53;;;4.10;99.90;;;;;;5033604;28;21302;-62
2023/01/19 12:50:07;;;;;;;24.53;16.83;;;4.30;99.90;;;;;;5032750;28;20476;-61
2023/01/19 12:52:46;;;;;;;22.37;15.80;;;4.30;99.90;;;;;;5027302;28;20481;-62
2023/01/19 12:55:23;;;;;;;25.33;16.93;;;4.20;99.90;;;;;;5026910;28;20501;-62
2023/01/19 12:57:59;;;;;;;22.50;17.13;;;4.20;99.90;;;;;;5029468;28;20518;-62
2023/01/19 13:00:38;;;;;;;19.20;15.13;;;4.20;99.90;;;;;;5026637;28;20561;-62
2023/01/19 13:03:39;;;;;;;20.43;14.60;;;4.20;99.90;;;;;;5034959;28;20486;-62